CheckWX is a tool to help pilots better visualize weather data.  It is not intended as a substitute for an official pre-flight weather briefing.

01:12:17 UTC

EGXE METAR
Leeming Airport
Leeming, United Kingdom
Current

1 hour ago

EGXE 232350Z AUTO 14003KT 9999 BKN130/// 05/02 Q1032
Observed
Mar-23 @ 23:50 UTC
Wind
  • 140° at 3 KTS
Visibility
10,000+ meters
Flight Rules
VFR
Cloud Levels
  • Broken at 13,000' AGL
Temperature
C / 41°F
Dewpoint
C / 36°F
Humidity
81%
Altimeter
30.47" Hg
Pressure
1031.91 hPa
Previous

2 hours ago

EGXE 232250Z AUTO 15003KT 9999 OVC130/// 06/02 Q1032
Observed
Mar-23 @ 22:50 UTC
Wind
  • 150° at 3 KTS
Visibility
10,000+ meters
Flight Rules
VFR
Cloud Levels
  • Overcast at 13,000' AGL
Temperature
C / 43°F
Dewpoint
C / 36°F
Humidity
76%
Altimeter
30.47" Hg
Pressure
1031.91 hPa
Previous

3 hours ago

EGXE 232150Z AUTO 27007KT 9999 OVC150/// 06/02 Q1033
Observed
Mar-23 @ 21:50 UTC
Wind
  • 270° at 7 KTS
Visibility
10,000+ meters
Flight Rules
VFR
Cloud Levels
  • Overcast at 15,000' AGL
Temperature
C / 43°F
Dewpoint
C / 36°F
Humidity
76%
Altimeter
30.5" Hg
Pressure
1032.91 hPa